Terminal Aerodrome Forecast
Issued by NWS Duluth, MN

Home | Current Version | Previous Version | Text Only | Print | Product List | Glossary On
Versions: 1 2 3 4 5 6 7 8 9 10 11 12 13 14 15
000
FTUS43 KDLH 192156 AAA
TAFINL
TAF AMD
KINL 192156Z 1922/2018 20009KT P6SM FEW250
     FM200800 18006KT P6SM FEW250
     FM201600 16009KT P6SM SCT250=

USA.gov is the U.S. government's official web portal to all federal, state and local government web resources and services.